Time;durP1;ratioP1;P1;durP2;ratioP2;P2;SDS_P1;SDS_P2;PMS_P1;PMS_P2;Temp;Humidity;BMP_temperature;BMP_pressure;BME280_temperature;BME280_humidity;BME280_pressure;Samples;Min_cycle;Max_cycle;Signal;HPM_P1;HPM_P2
2023/06/20 00:00:48;;;;;;;9.23;4.10;;;18.60;34.40;;;;;;5029266;28;46419;-80
2023/06/20 00:03:15;;;;;;;5.43;3.10;;;18.60;34.30;;;;;;5026751;28;46482;-78
2023/06/20 00:05:40;;;;;;;6.83;3.50;;;18.60;34.40;;;;;;5032851;28;46832;-81
2023/06/20 00:08:06;;;;;;;6.00;3.53;;;18.50;34.30;;;;;;5026155;28;46562;-78
2023/06/20 00:10:32;;;;;;;8.70;3.87;;;18.50;34.60;;;;;;5023336;28;47010;-80
2023/06/20 00:12:59;;;;;;;6.60;3.90;;;18.50;34.70;;;;;;5026738;28;46459;-79
2023/06/20 00:15:25;;;;;;;7.20;3.80;;;18.40;34.40;;;;;;5031978;28;46516;-77
2023/06/20 00:18:01;;;;;;;9.13;3.83;;;18.40;34.40;;;;;;5023353;28;46649;-79
2023/06/20 00:20:27;;;;;;;7.03;3.70;;;18.40;34.60;;;;;;5022860;28;46767;-79
2023/06/20 00:22:53;;;;;;;6.20;3.50;;;18.40;34.30;;;;;;5026408;28;46520;-79
2023/06/20 00:25:19;;;;;;;5.03;3.30;;;18.40;34.40;;;;;;5024438;28;46593;-79
2023/06/20 00:27:45;;;;;;;7.17;4.00;;;18.30;34.30;;;;;;5022368;28;49054;-79
2023/06/20 00:30:11;;;;;;;6.80;3.93;;;18.30;34.60;;;;;;5027068;28;46524;-80
2023/06/20 00:32:36;;;;;;;6.00;3.73;;;18.20;34.90;;;;;;5023795;28;46299;-79
2023/06/20 00:35:02;;;;;;;6.77;4.13;;;18.20;35.20;;;;;;5026063;28;46341;-79
2023/06/20 00:37:28;;;;;;;6.47;4.20;;;18.10;35.40;;;;;;5024044;28;46425;-79
2023/06/20 00:39:54;;;;;;;8.30;4.17;;;18.00;35.70;;;;;;5030303;28;48214;-79
2023/06/20 00:42:23;;;;;;;7.37;4.37;;;18.00;35.90;;;;;;5028096;28;46447;-78
2023/06/20 00:44:50;;;;;;;9.40;4.40;;;17.90;36.10;;;;;;5030144;28;46498;-79
2023/06/20 00:47:16;;;;;;;9.20;4.23;;;17.80;36.30;;;;;;5027537;28;47047;-77
2023/06/20 00:49:46;;;;;;;7.30;4.20;;;17.70;36.60;;;;;;5027945;28;48178;-78
2023/06/20 00:52:17;;;;;;;11.40;4.87;;;17.60;37.90;;;;;;5030931;28;46571;-78
2023/06/20 00:54:44;;;;;;;7.27;4.43;;;17.60;36.90;;;;;;5029555;28;46512;-77
2023/06/20 00:57:13;;;;;;;6.93;4.23;;;17.70;36.90;;;;;;5030815;28;46447;-78
2023/06/20 00:59:42;;;;;;;6.83;4.13;;;17.50;37.00;;;;;;5027788;28;47297;-78
2023/06/20 01:02:07;;;;;;;12.00;4.60;;;17.40;37.40;;;;;;5029482;28;45844;-81
2023/06/20 01:04:33;;;;;;;8.77;4.57;;;17.30;37.90;;;;;;5034624;28;46556;-77
2023/06/20 01:07:41;;;;;;;7.77;4.30;;;17.20;38.30;;;;;;5026195;28;46575;-78
2023/06/20 01:10:14;;;;;;;12.80;4.80;;;17.20;39.00;;;;;;5035966;28;48048;-78
2023/06/20 01:12:56;;;;;;;10.37;4.80;;;17.20;38.60;;;;;;5026560;28;46537;-79
2023/06/20 01:15:35;;;;;;;8.27;4.80;;;17.20;39.00;;;;;;5025411;28;46464;-78
2023/06/20 01:18:10;;;;;;;7.83;4.67;;;17.20;38.60;;;;;;5027601;28;47005;-78
2023/06/20 01:20:44;;;;;;;8.40;4.70;;;17.30;38.90;;;;;;5034482;28;46652;-77
2023/06/20 01:23:26;;;;;;;7.53;4.70;;;17.30;39.30;;;;;;5028302;28;46738;-80
2023/06/20 01:26:01;;;;;;;9.17;6.17;;;17.40;40.50;;;;;;5031355;28;46344;-80
2023/06/20 01:28:45;;;;;;;8.60;5.20;;;17.40;38.90;;;;;;5036797;28;46491;-79
2023/06/20 01:31:13;;;;;;;8.20;5.10;;;17.50;39.10;;;;;;5027619;28;46548;-78
2023/06/20 01:33:51;;;;;;;10.63;4.60;;;17.50;38.80;;;;;;5022505;28;46710;-78
2023/06/20 01:36:20;;;;;;;9.60;5.10;;;17.50;39.20;;;;;;5028283;28;46479;-80
2023/06/20 01:38:49;;;;;;;9.23;6.17;;;17.50;39.00;;;;;;5024826;28;46958;-78
2023/06/20 01:41:19;;;;;;;11.40;5.60;;;17.60;39.20;;;;;;5027338;28;46521;-76
2023/06/20 01:43:46;;;;;;;11.40;5.80;;;17.60;39.10;;;;;;5025256;28;46522;-78
2023/06/20 01:46:14;;;;;;;10.87;5.93;;;17.80;38.90;;;;;;5028393;28;45788;-78
2023/06/20 01:48:41;;;;;;;8.97;5.03;;;17.90;38.30;;;;;;5024811;28;46483;-77
2023/06/20 01:51:07;;;;;;;9.80;5.00;;;18.00;38.30;;;;;;5028467;28;46700;-80
2023/06/20 01:53:35;;;;;;;9.03;5.10;;;17.90;38.50;;;;;;5027883;28;46719;-80
2023/06/20 01:56:02;;;;;;;8.73;5.17;;;17.90;38.60;;;;;;5026990;28;46525;-78
2023/06/20 01:58:29;;;;;;;11.00;5.53;;;17.90;38.70;;;;;;5025863;28;46538;-76
2023/06/20 02:00:57;;;;;;;7.63;4.87;;;17.80;38.80;;;;;;5027749;28;46684;-78
2023/06/20 02:03:26;;;;;;;11.23;5.60;;;17.80;38.90;;;;;;5028147;28;46563;-77
2023/06/20 02:05:55;;;;;;;9.40;5.73;;;17.90;39.30;;;;;;5028856;28;45920;-77
2023/06/20 02:08:23;;;;;;;7.93;5.07;;;17.90;39.00;;;;;;5024507;28;46761;-76
2023/06/20 02:10:50;;;;;;;11.10;5.87;;;18.00;39.10;;;;;;5029620;28;46470;-79
2023/06/20 02:13:15;;;;;;;11.80;5.90;;;18.00;39.10;;;;;;5028007;28;46585;-78
2023/06/20 02:15:42;;;;;;;11.00;6.27;;;18.10;39.10;;;;;;5029879;28;46297;-77
2023/06/20 02:18:08;;;;;;;9.53;6.43;;;18.10;39.00;;;;;;5024392;28;46774;-77
2023/06/20 02:20:34;;;;;;;11.30;6.20;;;18.20;38.80;;;;;;5029363;28;46186;-77
2023/06/20 02:23:09;;;;;;;10.97;6.20;;;18.30;38.90;;;;;;5029534;28;46521;-76
2023/06/20 02:25:39;;;;;;;12.50;6.40;;;18.40;39.00;;;;;;5026251;28;46890;-79
2023/06/20 02:28:07;;;;;;;10.40;6.67;;;18.40;38.80;;;;;;5027569;28;46706;-78
2023/06/20 02:30:34;;;;;;;11.57;6.60;;;18.50;38.80;;;;;;5028408;28;47052;-77
2023/06/20 02:33:02;;;;;;;10.23;6.00;;;18.60;39.20;;;;;;5025489;28;46728;-78
2023/06/20 02:35:29;;;;;;;10.63;5.80;;;18.60;39.20;;;;;;5031105;28;46703;-77
2023/06/20 02:37:57;;;;;;;9.67;6.50;;;18.70;39.20;;;;;;5027796;28;46466;-78
2023/06/20 02:40:24;;;;;;;7.90;5.83;;;18.70;39.30;;;;;;5027860;28;46455;-77
2023/06/20 02:42:50;;;;;;;12.70;7.07;;;18.70;39.10;;;;;;5025895;28;46822;-77
2023/06/20 02:45:17;;;;;;;8.97;6.10;;;18.80;39.40;;;;;;5028206;28;46415;-80
2023/06/20 02:48:19;;;;;;;10.37;6.47;;;18.80;39.10;;;;;;5027875;28;46705;-78
2023/06/20 02:51:12;;;;;;;12.20;6.23;;;18.90;39.40;;;;;;5031442;28;46502;-77
2023/06/20 02:54:13;;;;;;;18.73;6.77;;;18.90;39.10;;;;;;5028395;28;46476;-81
2023/06/20 02:56:43;;;;;;;9.83;6.60;;;18.90;38.80;;;;;;5007410;28;46448;-77
2023/06/20 02:59:12;;;;;;;10.83;5.60;;;18.90;38.60;;;;;;5019644;28;46910;-77
2023/06/20 03:01:39;;;;;;;11.53;6.77;;;18.90;38.60;;;;;;5031478;28;46566;-77
2023/06/20 03:04:06;;;;;;;8.63;5.90;;;19.00;38.70;;;;;;5027986;28;46485;-79
2023/06/20 03:06:34;;;;;;;8.60;5.33;;;18.90;38.80;;;;;;5027840;28;46900;-79
2023/06/20 03:09:02;;;;;;;8.70;5.90;;;18.90;38.80;;;;;;5028593;28;46707;-79
2023/06/20 03:11:28;;;;;;;8.83;6.50;;;18.80;38.80;;;;;;5032919;28;46565;-79
2023/06/20 03:13:53;;;;;;;8.50;5.83;;;18.90;39.20;;;;;;5035864;28;46522;-78
2023/06/20 03:16:19;;;;;;;9.73;6.47;;;18.80;39.30;;;;;;5028194;28;46504;-78
2023/06/20 03:18:46;;;;;;;10.50;6.30;;;18.80;39.50;;;;;;5029659;28;46504;-78
2023/06/20 03:21:12;;;;;;;10.00;5.60;;;18.80;39.90;;;;;;5032537;28;46405;-78
2023/06/20 03:23:38;;;;;;;8.77;5.97;;;18.70;40.00;;;;;;5026167;28;46642;-79
2023/06/20 03:26:06;;;;;;;9.90;6.30;;;18.60;40.10;;;;;;5032564;28;46613;-79
2023/06/20 03:28:31;;;;;;;8.90;5.83;;;18.60;40.30;;;;;;5030758;28;46450;-77
2023/06/20 03:30:57;;;;;;;8.23;5.87;;;18.70;40.20;;;;;;5030110;28;47179;-78
2023/06/20 03:33:22;;;;;;;8.70;6.07;;;18.70;40.20;;;;;;5028088;28;46480;-78
2023/06/20 03:35:48;;;;;;;8.10;6.23;;;18.80;40.10;;;;;;5028063;28;46623;-80
2023/06/20 03:38:13;;;;;;;9.67;5.77;;;18.80;39.90;;;;;;5032992;28;46603;-79
2023/06/20 03:40:39;;;;;;;7.30;5.10;;;18.80;39.70;;;;;;5033883;28;48443;-78
2023/06/20 03:43:05;;;;;;;10.53;5.70;;;18.90;39.70;;;;;;5030121;28;47029;-80
2023/06/20 03:45:30;;;;;;;13.50;5.80;;;18.90;39.40;;;;;;5029976;28;48103;-79
2023/06/20 03:47:56;;;;;;;9.93;5.77;;;19.00;39.10;;;;;;5026550;28;46462;-78
2023/06/20 03:50:21;;;;;;;8.80;5.60;;;19.10;38.80;;;;;;5026736;28;48993;-78
2023/06/20 03:52:47;;;;;;;8.00;5.13;;;19.10;38.70;;;;;;5023773;28;47009;-80
2023/06/20 03:55:12;;;;;;;9.47;5.70;;;19.20;38.70;;;;;;5021216;28;46636;-79
2023/06/20 03:57:38;;;;;;;7.73;4.67;;;19.30;38.60;;;;;;5024807;28;46708;-76
2023/06/20 04:00:13;;;;;;;11.33;5.70;;;19.30;38.00;;;;;;5027691;28;52426;-77
2023/06/20 04:02:41;;;;;;;9.03;5.20;;;19.40;37.90;;;;;;5024207;28;46392;-77
2023/06/20 04:05:08;;;;;;;8.77;5.00;;;19.60;37.90;;;;;;5021370;28;46454;-78
2023/06/20 04:07:33;;;;;;;11.20;5.43;;;19.70;37.30;;;;;;5023432;28;46879;-78
2023/06/20 04:09:59;;;;;;;8.87;5.00;;;19.80;37.00;;;;;;5025844;28;48085;-79
2023/06/20 04:12:25;;;;;;;7.40;4.83;;;19.90;36.60;;;;;;5028548;28;46682;-77
2023/06/20 04:14:52;;;;;;;7.80;5.00;;;20.10;36.00;;;;;;5020776;28;46662;-78
2023/06/20 04:17:18;;;;;;;9.40;4.90;;;20.30;35.50;;;;;;5033872;28;46886;-79
2023/06/20 04:19:44;;;;;;;11.03;5.00;;;20.30;35.10;;;;;;5030261;28;48049;-78
2023/06/20 04:22:12;;;;;;;8.03;4.67;;;20.30;34.90;;;;;;5031244;28;46822;-79
2023/06/20 04:24:38;;;;;;;7.03;4.73;;;20.50;34.90;;;;;;5030111;28;47134;-78
2023/06/20 04:27:04;;;;;;;8.57;4.93;;;20.30;35.00;;;;;;5029076;28;46022;-78
2023/06/20 04:29:30;;;;;;;7.53;5.30;;;20.30;35.00;;;;;;5029961;28;46660;-78
2023/06/20 04:31:56;;;;;;;9.83;5.37;;;20.40;35.00;;;;;;5033774;28;46799;-79
2023/06/20 04:34:23;;;;;;;6.03;4.47;;;20.30;35.10;;;;;;5028315;28;46596;-77
2023/06/20 04:36:50;;;;;;;7.00;4.90;;;20.30;35.40;;;;;;5031875;28;46372;-78
2023/06/20 04:39:16;;;;;;;6.57;4.80;;;20.30;35.40;;;;;;5030681;28;47009;-78
2023/06/20 04:41:41;;;;;;;7.30;4.90;;;20.40;35.50;;;;;;5031291;28;46711;-78
2023/06/20 04:44:08;;;;;;;9.57;5.07;;;20.40;35.50;;;;;;5039215;28;46511;-80
2023/06/20 04:46:33;;;;;;;6.87;4.33;;;20.40;35.20;;;;;;5040569;28;46682;-79
2023/06/20 04:49:00;;;;;;;8.70;5.07;;;20.50;35.00;;;;;;5044622;28;47942;-79
2023/06/20 04:51:26;;;;;;;7.30;4.80;;;20.70;34.80;;;;;;5044082;28;47283;-81
2023/06/20 04:53:52;;;;;;;8.07;4.70;;;20.70;34.70;;;;;;5031385;28;46953;-79
2023/06/20 04:56:19;;;;;;;7.90;4.87;;;21.00;35.00;;;;;;5030904;28;46437;-80
2023/06/20 04:58:46;;;;;;;6.90;4.50;;;21.00;35.00;;;;;;5033216;28;46216;-76
2023/06/20 05:01:14;;;;;;;8.33;4.70;;;21.30;34.20;;;;;;5027431;28;47423;-79
2023/06/20 05:03:43;;;;;;;12.10;5.10;;;21.60;33.30;;;;;;5028412;28;46723;-78
2023/06/20 05:06:08;;;;;;;10.90;4.70;;;22.10;32.00;;;;;;5027658;28;46594;-78
2023/06/20 05:08:34;;;;;;;7.00;4.33;;;22.20;31.50;;;;;;5026866;28;46372;-77
2023/06/20 05:11:00;;;;;;;8.63;4.33;;;22.40;31.10;;;;;;5029910;28;46932;-78
2023/06/20 05:13:25;;;;;;;8.20;4.23;;;22.50;30.50;;;;;;5029817;28;46840;-78
2023/06/20 05:15:51;;;;;;;9.73;4.47;;;22.60;30.00;;;;;;5033204;28;46471;-77
2023/06/20 05:18:17;;;;;;;8.40;4.20;;;22.60;29.80;;;;;;5032369;28;47123;-79
2023/06/20 05:20:42;;;;;;;11.10;4.50;;;22.60;29.60;;;;;;5035018;28;46443;-78
2023/06/20 05:23:08;;;;;;;7.20;4.40;;;22.70;29.50;;;;;;5029196;28;46268;-77
2023/06/20 05:25:34;;;;;;;6.97;4.17;;;22.60;29.60;;;;;;5030248;28;46543;-77
2023/06/20 05:28:00;;;;;;;7.07;4.60;;;22.50;29.70;;;;;;5024416;28;47254;-78
2023/06/20 05:30:25;;;;;;;6.70;4.17;;;22.30;29.80;;;;;;5029451;28;47498;-78
2023/06/20 05:32:51;;;;;;;7.47;5.20;;;22.30;30.00;;;;;;5028852;28;46751;-75
2023/06/20 05:35:17;;;;;;;7.17;4.40;;;22.30;29.90;;;;;;5023837;28;45950;-77
2023/06/20 05:37:46;;;;;;;8.13;5.10;;;22.40;29.80;;;;;;5035799;28;49531;-78
2023/06/20 05:40:11;;;;;;;6.43;4.37;;;22.50;29.60;;;;;;5027367;28;46491;-77
2023/06/20 05:42:37;;;;;;;9.87;4.37;;;22.70;29.10;;;;;;5028708;28;46447;-77
2023/06/20 05:45:03;;;;;;;8.00;4.63;;;22.70;29.00;;;;;;5027395;28;46879;-76
2023/06/20 05:47:28;;;;;;;8.30;5.10;;;22.80;29.10;;;;;;5041173;28;48141;-78
2023/06/20 05:49:57;;;;;;;8.00;4.47;;;22.80;29.30;;;;;;5027708;28;46746;-78
2023/06/20 05:52:23;;;;;;;7.63;4.77;;;22.70;29.30;;;;;;5023328;28;46882;-77
2023/06/20 05:54:48;;;;;;;13.50;4.67;;;22.70;29.30;;;;;;5031402;28;46763;-78
2023/06/20 05:57:14;;;;;;;8.67;4.53;;;22.60;30.60;;;;;;5029848;28;46490;-78
2023/06/20 05:59:39;;;;;;;7.20;4.13;;;22.40;30.00;;;;;;5027171;28;45860;-77
2023/06/20 06:02:05;;;;;;;10.93;5.33;;;22.30;30.90;;;;;;5028066;28;46594;-78
2023/06/20 06:04:33;;;;;;;9.90;5.60;;;22.10;31.50;;;;;;5024519;28;46487;-76
2023/06/20 06:06:59;;;;;;;17.10;4.77;;;22.00;32.10;;;;;;5027739;28;48799;-78
2023/06/20 06:09:24;;;;;;;7.70;5.17;;;21.80;33.10;;;;;;5030501;28;46554;-78
2023/06/20 06:11:50;;;;;;;9.37;4.80;;;21.70;33.70;;;;;;5030086;28;45839;-77
2023/06/20 06:14:15;;;;;;;8.93;5.30;;;21.70;34.10;;;;;;5027124;28;46737;-77
2023/06/20 06:16:41;;;;;;;7.73;4.27;;;21.70;34.00;;;;;;5030550;28;47516;-77
2023/06/20 06:19:06;;;;;;;8.13;4.77;;;21.70;34.20;;;;;;5026477;28;46528;-78
2023/06/20 06:21:32;;;;;;;7.80;4.80;;;21.70;34.00;;;;;;5031235;28;46565;-77
2023/06/20 06:23:57;;;;;;;7.23;4.50;;;21.60;34.40;;;;;;5039037;28;46430;-75
2023/06/20 06:26:23;;;;;;;10.03;5.10;;;21.70;34.60;;;;;;5028943;28;48595;-75
2023/06/20 06:28:49;;;;;;;10.40;5.10;;;21.60;35.00;;;;;;5027035;28;46368;-77
2023/06/20 06:31:21;;;;;;;10.37;5.40;;;21.60;35.50;;;;;;5037926;28;46421;-78
2023/06/20 06:33:47;;;;;;;10.50;4.70;;;21.70;35.50;;;;;;5025805;28;46517;-77
2023/06/20 06:36:15;;;;;;;11.17;5.03;;;21.90;34.80;;;;;;5029890;28;48125;-77
2023/06/20 06:38:41;;;;;;;7.43;4.87;;;22.20;34.40;;;;;;5043628;28;46486;-78
2023/06/20 06:41:07;;;;;;;8.73;5.10;;;22.30;34.00;;;;;;5029747;28;46461;-79
2023/06/20 06:43:33;;;;;;;8.10;4.57;;;22.50;33.50;;;;;;5028195;28;46428;-76
2023/06/20 06:45:59;;;;;;;7.93;4.47;;;22.60;33.20;;;;;;5030307;28;46783;-78
2023/06/20 06:48:24;;;;;;;9.03;4.73;;;22.80;32.30;;;;;;5030385;28;46480;-80
2023/06/20 06:50:50;;;;;;;6.30;4.00;;;22.90;31.70;;;;;;5029012;28;46522;-78
2023/06/20 06:53:15;;;;;;;8.83;4.40;;;22.90;32.00;;;;;;5030708;28;46685;-79
2023/06/20 06:55:45;;;;;;;8.50;4.77;;;23.20;32.20;;;;;;5028083;28;46802;-80
2023/06/20 06:58:11;;;;;;;7.60;4.40;;;23.40;32.00;;;;;;5032612;28;46453;-79
2023/06/20 07:00:37;;;;;;;7.83;4.70;;;23.50;31.10;;;;;;5036374;28;45862;-79
2023/06/20 07:03:03;;;;;;;8.80;5.20;;;23.80;30.60;;;;;;5033101;28;46690;-77
2023/06/20 07:05:28;;;;;;;8.47;4.30;;;24.00;30.60;;;;;;5029371;28;48243;-80
2023/06/20 07:07:54;;;;;;;7.00;4.00;;;24.00;30.00;;;;;;5031300;28;46958;-77
2023/06/20 07:10:19;;;;;;;6.33;3.93;;;24.00;29.60;;;;;;5025437;28;46519;-78
2023/06/20 07:12:45;;;;;;;8.90;3.93;;;24.20;29.20;;;;;;5027212;28;47233;-78
2023/06/20 07:15:11;;;;;;;7.77;4.67;;;24.30;29.00;;;;;;5027192;28;46783;-77
2023/06/20 07:17:36;;;;;;;10.50;3.60;;;24.20;28.90;;;;;;5034433;28;46589;-78
2023/06/20 07:20:07;;;;;;;6.57;4.00;;;24.00;29.10;;;;;;5027621;28;46612;-77
2023/06/20 07:22:33;;;;;;;6.87;4.00;;;24.00;29.40;;;;;;5031252;28;46424;-76
2023/06/20 07:24:59;;;;;;;9.77;4.13;;;24.00;29.50;;;;;;5024493;28;46264;-80
2023/06/20 07:27:24;;;;;;;6.37;4.13;;;24.20;29.80;;;;;;5031258;28;47228;-77
2023/06/20 07:29:50;;;;;;;8.93;3.60;;;24.50;29.30;;;;;;5027611;28;46519;-76
2023/06/20 07:32:16;;;;;;;6.57;4.07;;;24.80;28.90;;;;;;5025859;28;46704;-80
2023/06/20 07:34:42;;;;;;;4.90;3.40;;;25.00;28.60;;;;;;5025830;28;48061;-79
2023/06/20 07:37:07;;;;;;;6.40;4.00;;;24.80;28.30;;;;;;5023904;28;46652;-79
2023/06/20 07:39:33;;;;;;;6.40;4.07;;;25.00;28.30;;;;;;5024016;28;46519;-79
2023/06/20 07:41:58;;;;;;;7.00;4.10;;;25.20;27.90;;;;;;5022991;28;46757;-77
2023/06/20 07:44:24;;;;;;;6.30;3.97;;;25.40;27.40;;;;;;5031562;28;49167;-79
2023/06/20 07:46:49;;;;;;;8.37;4.17;;;25.70;26.70;;;;;;5028076;28;46430;-78
2023/06/20 07:49:15;;;;;;;8.67;4.30;;;25.80;26.40;;;;;;5034018;28;46519;-80
2023/06/20 07:51:40;;;;;;;6.90;4.40;;;26.00;26.10;;;;;;5029859;28;45935;-78
2023/06/20 07:54:06;;;;;;;7.63;3.80;;;26.00;25.60;;;;;;5024038;28;46662;-79
2023/06/20 07:56:32;;;;;;;7.07;4.50;;;26.10;25.10;;;;;;5027850;28;46444;-79
2023/06/20 07:58:58;;;;;;;6.90;4.00;;;26.30;24.70;;;;;;5029950;28;46801;-79
2023/06/20 08:01:23;;;;;;;6.67;3.97;;;26.50;23.90;;;;;;5025621;28;47639;-79
2023/06/20 08:03:49;;;;;;;7.20;4.50;;;26.60;23.50;;;;;;5026231;28;46654;-78
2023/06/20 08:06:14;;;;;;;7.17;4.33;;;26.70;22.90;;;;;;5025506;28;46931;-79
2023/06/20 08:08:40;;;;;;;10.97;3.80;;;26.90;22.50;;;;;;5025197;28;46741;-80
2023/06/20 08:11:05;;;;;;;13.63;4.27;;;27.00;21.90;;;;;;5027176;28;46867;-80
2023/06/20 08:13:31;;;;;;;8.60;3.80;;;27.30;21.60;;;;;;5036095;28;47664;-80
2023/06/20 08:15:57;;;;;;;6.30;3.20;;;27.40;20.80;;;;;;5030430;28;46436;-79
2023/06/20 08:18:23;;;;;;;6.47;3.77;;;27.50;20.20;;;;;;5031738;28;46751;-75
2023/06/20 08:20:48;;;;;;;7.57;4.30;;;27.60;19.60;;;;;;5029124;28;46447;-79
2023/06/20 08:23:22;;;;;;;11.10;4.30;;;27.50;19.00;;;;;;5031017;28;48117;-80
2023/06/20 08:25:47;;;;;;;8.13;3.80;;;27.70;18.40;;;;;;5034750;28;46702;-79
2023/06/20 08:28:13;;;;;;;7.77;3.70;;;27.90;17.70;;;;;;5031414;28;46663;-77
2023/06/20 08:30:38;;;;;;;6.10;3.50;;;28.10;17.20;;;;;;5030333;28;46436;-78
2023/06/20 08:33:04;;;;;;;9.53;3.40;;;28.30;16.60;;;;;;5023152;28;46767;-77
2023/06/20 08:35:29;;;;;;;7.30;3.70;;;28.50;16.80;;;;;;5030214;28;46604;-77
2023/06/20 08:37:55;;;;;;;5.80;3.30;;;28.70;15.90;;;;;;5029356;28;46505;-77
2023/06/20 08:40:21;;;;;;;11.10;3.50;;;28.80;15.30;;;;;;5024774;28;46415;-79
2023/06/20 08:42:46;;;;;;;7.93;3.30;;;28.90;14.80;;;;;;5027521;28;48009;-79
2023/06/20 08:45:16;;;;;;;9.50;3.80;;;29.10;14.20;;;;;;5029951;28;46525;-76
2023/06/20 08:47:41;;;;;;;7.50;3.50;;;29.10;13.50;;;;;;5026678;28;46394;-78
2023/06/20 08:50:07;;;;;;;12.20;3.80;;;29.20;13.10;;;;;;5026694;28;46549;-80
2023/06/20 08:52:44;;;;;;;7.50;3.17;;;29.30;12.80;;;;;;5033556;28;46223;-77
2023/06/20 08:55:11;;;;;;;6.53;3.53;;;29.30;12.10;;;;;;5028363;28;46552;-78
2023/06/20 08:57:36;;;;;;;9.13;3.57;;;29.50;11.50;;;;;;5033026;28;47056;-78
2023/06/20 09:00:04;;;;;;;10.30;3.27;;;29.40;10.90;;;;;;5026542;28;46478;-78
2023/06/20 09:02:30;;;;;;;8.13;3.13;;;29.60;10.20;;;;;;5028176;28;46598;-78
2023/06/20 09:05:03;;;;;;;8.30;3.33;;;29.70;10.00;;;;;;5025535;28;46510;-78
2023/06/20 09:07:37;;;;;;;6.67;3.20;;;29.80;9.10;;;;;;5036439;28;46167;-78
2023/06/20 09:10:08;;;;;;;7.50;3.30;;;29.90;8.70;;;;;;5030627;28;46392;-79
2023/06/20 09:12:54;;;;;;;9.80;3.97;;;30.00;8.50;;;;;;5030416;28;47465;-78
2023/06/20 09:15:25;;;;;;;6.70;3.10;;;30.20;7.80;;;;;;5028947;28;46706;-78
2023/06/20 09:17:55;;;;;;;5.30;3.10;;;30.30;7.50;;;;;;5029420;28;46949;-80
2023/06/20 09:20:25;;;;;;;6.60;2.63;;;30.40;7.40;;;;;;5028320;28;46389;-79
2023/06/20 09:22:51;;;;;;;8.37;2.80;;;30.30;6.30;;;;;;5032645;28;49295;-81
2023/06/20 09:25:25;;;;;;;7.53;3.27;;;30.30;6.30;;;;;;5030752;28;46470;-78
2023/06/20 09:27:51;;;;;;;5.57;2.73;;;30.20;6.30;;;;;;5034267;28;46456;-78
2023/06/20 09:30:17;;;;;;;10.07;2.90;;;30.40;6.40;;;;;;5030837;28;46534;-81
2023/06/20 09:32:43;;;;;;;11.43;2.80;;;30.30;5.70;;;;;;5029433;28;46883;-78
2023/06/20 09:35:10;;;;;;;5.13;2.50;;;30.20;5.10;;;;;;5031412;28;46577;-79
2023/06/20 09:37:44;;;;;;;6.03;2.70;;;30.30;4.80;;;;;;5029566;28;47172;-78
2023/06/20 09:40:17;;;;;;;8.60;3.13;;;30.40;3.70;;;;;;5033651;28;46307;-79
2023/06/20 09:42:44;;;;;;;11.03;2.97;;;30.40;3.60;;;;;;5030282;28;47283;-77
2023/06/20 09:45:12;;;;;;;10.20;3.07;;;30.50;3.90;;;;;;5026422;28;45824;-77
2023/06/20 09:47:39;;;;;;;7.83;3.07;;;30.50;3.60;;;;;;5026543;28;46774;-77
2023/06/20 09:50:13;;;;;;;10.37;3.17;;;30.70;3.60;;;;;;5035747;28;46527;-78
2023/06/20 09:52:46;;;;;;;10.80;3.20;;;30.70;3.30;;;;;;5028774;28;46687;-78
2023/06/20 09:55:14;;;;;;;7.10;2.93;;;30.80;2.60;;;;;;5029326;28;46377;-76
2023/06/20 09:57:42;;;;;;;5.53;2.63;;;30.80;2.60;;;;;;5031213;28;45929;-78
2023/06/20 10:00:14;;;;;;;7.20;2.63;;;30.60;2.10;;;;;;5033969;28;46645;-79
2023/06/20 10:02:42;;;;;;;9.37;3.37;;;30.80;2.40;;;;;;5028080;28;46803;-77
2023/06/20 10:05:09;;;;;;;7.37;2.87;;;30.80;2.10;;;;;;5026425;28;46920;-78
2023/06/20 10:07:37;;;;;;;5.90;2.73;;;30.90;1.80;;;;;;5028375;28;46719;-76
2023/06/20 10:10:03;;;;;;;7.33;2.80;;;30.80;1.60;;;;;;5027864;28;46498;-77
2023/06/20 10:12:30;;;;;;;13.57;3.60;;;30.60;1.20;;;;;;5027384;28;47379;-78
2023/06/20 10:14:56;;;;;;;6.80;2.53;;;30.40;1.20;;;;;;5029631;28;46476;-76
2023/06/20 10:17:31;;;;;;;7.33;2.77;;;30.40;1.00;;;;;;5027116;28;46493;-77
2023/06/20 10:19:58;;;;;;;7.20;3.00;;;30.50;1.00;;;;;;5028488;28;46764;-78
2023/06/20 10:22:34;;;;;;;8.30;2.80;;;30.60;1.00;;;;;;5027782;28;46471;-77
2023/06/20 10:25:18;;;;;;;6.40;2.50;;;30.60;1.00;;;;;;5027969;28;46461;-79
2023/06/20 10:28:04;;;;;;;8.30;2.90;;;30.50;1.00;;;;;;5025444;28;46527;-78
2023/06/20 10:30:53;;;;;;;7.60;2.80;;;30.50;1.00;;;;;;5030667;28;46536;-76
2023/06/20 10:33:45;;;;;;;7.07;3.30;;;30.50;1.00;;;;;;5029814;28;48343;-79
2023/06/20 10:36:16;;;;;;;7.40;2.70;;;30.50;1.00;;;;;;5026901;28;46459;-78
2023/06/20 10:38:51;;;;;;;8.83;2.70;;;30.60;1.00;;;;;;5030604;28;46533;-79
2023/06/20 10:41:26;;;;;;;12.50;2.83;;;30.70;1.00;;;;;;5044129;28;46984;-77
2023/06/20 10:43:57;;;;;;;9.37;2.90;;;31.00;1.00;;;;;;5033426;28;47014;-80
2023/06/20 10:46:35;;;;;;;7.40;3.03;;;31.20;1.00;;;;;;5033898;28;47094;-77
2023/06/20 10:49:02;;;;;;;6.00;2.97;;;31.20;1.00;;;;;;5031468;28;46518;-80
2023/06/20 10:51:29;;;;;;;8.10;3.33;;;31.30;1.00;;;;;;5032167;28;46297;-79
2023/06/20 10:54:08;;;;;;;9.73;3.17;;;31.60;1.00;;;;;;5034781;28;46863;-79
2023/06/20 10:56:35;;;;;;;6.30;2.50;;;31.70;1.00;;;;;;5024373;28;46625;-77
2023/06/20 10:59:14;;;;;;;6.63;3.13;;;31.40;1.00;;;;;;5032591;28;46692;-76
2023/06/20 11:01:40;;;;;;;7.33;3.20;;;31.40;1.00;;;;;;5021431;28;47948;-78
2023/06/20 11:04:07;;;;;;;14.50;3.20;;;31.30;1.00;;;;;;5023137;28;47381;-79
2023/06/20 11:06:33;;;;;;;7.70;3.07;;;31.40;1.00;;;;;;5027543;28;46396;-77
2023/06/20 11:08:59;;;;;;;8.73;3.03;;;31.40;1.00;;;;;;5028288;28;46607;-79
2023/06/20 11:11:37;;;;;;;11.00;2.63;;;31.60;1.00;;;;;;5039793;28;46553;-79
2023/06/20 11:14:22;;;;;;;4.60;2.40;;;31.80;1.00;;;;;;5026323;28;46523;-77
2023/06/20 11:16:50;;;;;;;9.57;2.63;;;32.00;1.00;;;;;;5028499;28;46539;-77
2023/06/20 11:19:19;;;;;;;8.10;3.03;;;32.20;1.00;;;;;;5025216;28;46757;-76
2023/06/20 11:21:45;;;;;;;6.23;2.80;;;32.40;1.00;;;;;;5033972;28;46642;-78
2023/06/20 11:24:11;;;;;;;4.93;2.57;;;32.40;1.00;;;;;;5026381;28;47075;-79
2023/06/20 11:26:36;;;;;;;9.50;3.17;;;32.50;1.00;;;;;;5028811;28;46504;-78
2023/06/20 11:29:04;;;;;;;10.23;2.93;;;32.40;1.00;;;;;;5020044;28;45863;-75
2023/06/20 11:31:30;;;;;;;6.43;2.97;;;32.40;1.00;;;;;;5022950;28;46577;-77
2023/06/20 11:34:06;;;;;;;6.30;3.03;;;32.20;1.00;;;;;;5022459;28;48333;-77
2023/06/20 11:36:36;;;;;;;8.63;3.40;;;32.20;1.00;;;;;;5026131;28;47024;-79
2023/06/20 11:39:29;;;;;;;7.17;2.73;;;32.30;1.00;;;;;;5028140;28;46563;-78
2023/06/20 11:41:54;;;;;;;9.73;3.07;;;31.90;1.00;;;;;;5026814;28;46718;-78
2023/06/20 11:44:23;;;;;;;8.83;2.93;;;32.00;1.00;;;;;;5028891;28;48390;-77
2023/06/20 11:46:48;;;;;;;6.40;2.70;;;31.90;1.00;;;;;;5029214;28;46505;-80
2023/06/20 11:49:14;;;;;;;12.97;3.03;;;32.00;1.00;;;;;;5025373;28;46426;-78
2023/06/20 11:51:39;;;;;;;8.17;3.20;;;32.10;1.00;;;;;;5028233;28;47005;-79
2023/06/20 11:54:12;;;;;;;10.37;2.83;;;31.90;1.00;;;;;;5029886;28;47396;-81
2023/06/20 11:56:38;;;;;;;6.30;3.20;;;32.10;1.00;;;;;;5026099;28;46452;-84
2023/06/20 11:59:04;;;;;;;8.77;3.10;;;32.00;1.00;;;;;;5022509;28;47063;-79
2023/06/20 12:01:32;;;;;;;11.10;3.20;;;32.20;1.00;;;;;;5034544;28;46386;-82
2023/06/20 12:04:06;;;;;;;8.80;3.33;;;32.30;1.00;;;;;;5037144;28;48021;-78
2023/06/20 12:06:40;;;;;;;24.93;3.30;;;32.30;1.00;;;;;;5027654;28;46478;-78
2023/06/20 12:09:11;;;;;;;9.73;3.33;;;32.30;1.00;;;;;;5024680;28;46601;-76
2023/06/20 12:11:52;;;;;;;10.23;3.47;;;32.10;1.00;;;;;;5024043;28;46749;-77
2023/06/20 12:14:18;;;;;;;10.70;3.83;;;32.00;1.00;;;;;;5030265;28;49245;-77
2023/06/20 12:16:44;;;;;;;10.23;3.37;;;32.10;1.00;;;;;;5019644;28;46698;-77
2023/06/20 12:19:10;;;;;;;8.87;3.33;;;32.10;1.00;;;;;;5023422;28;46524;-76
2023/06/20 12:21:39;;;;;;;10.60;3.40;;;32.40;1.00;;;;;;5024979;28;46530;-78
2023/06/20 12:24:11;;;;;;;10.23;4.17;;;32.20;1.00;;;;;;5024003;28;47344;-78
2023/06/20 12:26:37;;;;;;;5.50;3.30;;;32.30;1.00;;;;;;5023834;28;47118;-79
2023/06/20 12:29:04;;;;;;;8.87;4.30;;;32.20;1.00;;;;;;5028046;28;46353;-76
2023/06/20 12:31:31;;;;;;;11.77;3.93;;;32.20;1.00;;;;;;5026260;28;46522;-77
2023/06/20 12:33:56;;;;;;;12.60;3.80;;;32.20;1.00;;;;;;5029182;28;48120;-78
2023/06/20 12:36:22;;;;;;;6.63;3.30;;;32.30;1.00;;;;;;5024727;28;46801;-76
2023/06/20 12:38:48;;;;;;;13.33;4.17;;;32.40;1.00;;;;;;5029974;28;46999;-79
2023/06/20 12:41:15;;;;;;;6.70;3.57;;;32.30;1.00;;;;;;5028133;28;46524;-78
2023/06/20 12:43:40;;;;;;;9.05;3.60;;;32.10;1.00;;;;;;5027855;28;46646;-77
2023/06/20 12:46:06;;;;;;;5.73;3.00;;;32.10;1.00;;;;;;5031520;28;46486;-78
2023/06/20 12:48:31;;;;;;;6.90;3.40;;;32.20;1.00;;;;;;5027213;28;46482;-78
2023/06/20 12:50:57;;;;;;;15.80;3.73;;;32.50;1.00;;;;;;5033805;28;46733;-77
2023/06/20 12:53:23;;;;;;;8.63;3.40;;;32.60;1.00;;;;;;5027858;28;47034;-78